createdAt,value
2023-03-05T00:01:41.666Z,100545.00
2023-03-05T00:04:15.222Z,100541.69
2023-03-05T00:06:45.275Z,100542.84
2023-03-05T00:09:14.538Z,100540.98
2023-03-05T00:11:43.164Z,100540.06
2023-03-05T00:14:12.836Z,100539.34
2023-03-05T00:16:41.546Z,100537.20
2023-03-05T00:19:11.219Z,100534.07
2023-03-05T00:21:41.495Z,100531.48
2023-03-05T00:24:18.892Z,100528.23
2023-03-05T00:26:47.648Z,100527.61
2023-03-05T00:29:24.238Z,100524.79
2023-03-05T00:31:52.564Z,100517.19
2023-03-05T00:34:21.316Z,100515.50
2023-03-05T00:36:52.140Z,100511.80
2023-03-05T00:39:21.914Z,100508.16
2023-03-05T00:41:54.350Z,100507.61
2023-03-05T00:44:22.575Z,100507.95
2023-03-05T00:46:51.185Z,100505.29
2023-03-05T00:49:19.705Z,100504.44
2023-03-05T00:51:48.094Z,100501.36
2023-03-05T00:54:16.462Z,100499.85
2023-03-05T00:56:45.314Z,100499.36
2023-03-05T00:59:13.878Z,100493.72
2023-03-05T01:01:42.263Z,100488.91
2023-03-05T01:04:10.737Z,100486.86
2023-03-05T01:06:43.009Z,100481.30
2023-03-05T01:09:11.665Z,100480.27
2023-03-05T01:11:40.563Z,100477.52
2023-03-05T01:14:09.048Z,100476.52
2023-03-05T01:16:37.443Z,100481.15
2023-03-05T01:19:06.151Z,100478.48
2023-03-05T01:21:36.208Z,100476.59
2023-03-05T01:24:06.726Z,100474.19
2023-03-05T01:26:35.024Z,100472.44
2023-03-05T01:29:03.908Z,100471.65
2023-03-05T01:31:32.362Z,100466.65
2023-03-05T01:34:01.088Z,100463.68
2023-03-05T01:36:29.642Z,100459.08
2023-03-05T01:38:58.323Z,100457.97
2023-03-05T01:41:27.420Z,100451.16
2023-03-05T01:43:58.081Z,100450.91
2023-03-05T01:46:39.413Z,100448.04
2023-03-05T01:49:17.357Z,100448.13
2023-03-05T01:52:01.218Z,100444.63
2023-03-05T01:54:46.682Z,100439.77
2023-03-05T01:57:18.523Z,100438.12
2023-03-05T01:59:51.164Z,100437.66
2023-03-05T02:02:22.272Z,100434.11
2023-03-05T02:04:55.194Z,100434.91
2023-03-05T02:07:25.151Z,100430.44
2023-03-05T02:09:54.395Z,100430.89
2023-03-05T02:12:23.148Z,100428.05
2023-03-05T02:14:59.408Z,100428.19
2023-03-05T02:17:28.792Z,100426.61
2023-03-05T02:20:08.667Z,100425.80
2023-03-05T02:22:37.194Z,100418.39
2023-03-05T02:25:31.777Z,100412.91
2023-03-05T02:28:09.113Z,100409.77
2023-03-05T02:30:37.712Z,100411.45
2023-03-05T02:33:06.161Z,100410.06
2023-03-05T02:35:35.282Z,100403.46
2023-03-05T02:38:03.986Z,100396.41
2023-03-05T02:40:32.468Z,100388.52
2023-03-05T02:43:00.891Z,100384.63
2023-03-05T02:45:29.435Z,100386.21
2023-03-05T02:47:57.917Z,100387.16
2023-03-05T02:50:28.339Z,100384.63
2023-03-05T02:52:56.645Z,100377.71
2023-03-05T02:55:24.800Z,100377.77
2023-03-05T02:57:53.802Z,100373.96
2023-03-05T03:00:22.694Z,100367.60
2023-03-05T03:02:51.019Z,100364.88
2023-03-05T03:05:19.357Z,100364.05
2023-03-05T03:07:48.756Z,100359.12
2023-03-05T03:10:17.645Z,100353.71
2023-03-05T03:12:46.142Z,100340.60
2023-03-05T03:15:16.685Z,100333.20
2023-03-05T03:17:45.664Z,100334.10
2023-03-05T03:20:16.926Z,100337.20
2023-03-05T03:22:47.854Z,100330.55
2023-03-05T03:25:23.296Z,100329.13
2023-03-05T03:27:51.780Z,100336.32
2023-03-05T03:30:20.220Z,100346.73
2023-03-05T03:32:49.266Z,100343.63
2023-03-05T03:35:17.775Z,100335.67
2023-03-05T03:37:46.040Z,100332.47
2023-03-05T03:40:18.039Z,100325.58
2023-03-05T03:42:46.408Z,100325.73
2023-03-05T03:45:14.804Z,100326.13
2023-03-05T03:47:43.080Z,100323.11
2023-03-05T03:50:11.889Z,100317.23
2023-03-05T03:52:41.149Z,100315.89
2023-03-05T03:55:12.877Z,100308.43
2023-03-05T03:57:41.548Z,100306.39
2023-03-05T04:00:11.733Z,100300.55
2023-03-05T04:02:40.363Z,100299.02
2023-03-05T04:05:09.337Z,100294.73
2023-03-05T04:07:37.397Z,100286.32
2023-03-05T04:10:06.340Z,100277.80
2023-03-05T04:12:34.973Z,100269.87
2023-03-05T04:15:03.370Z,100262.78
2023-03-05T04:17:32.966Z,100268.81
2023-03-05T04:20:02.020Z,100266.10
2023-03-05T04:22:30.426Z,100262.16
2023-03-05T04:24:59.272Z,100267.15
2023-03-05T04:27:28.632Z,100267.37
2023-03-05T04:29:56.731Z,100272.73
2023-03-05T04:32:30.127Z,100273.73
2023-03-05T04:34:58.955Z,100267.72
2023-03-05T04:37:27.388Z,100269.29
2023-03-05T04:39:55.781Z,100265.66
2023-03-05T04:42:24.361Z,100267.21
2023-03-05T04:44:52.894Z,100263.77
2023-03-05T04:47:21.560Z,100257.38
2023-03-05T04:49:49.898Z,100253.42
2023-03-05T04:52:21.045Z,100247.02
2023-03-05T04:54:49.395Z,100251.17
2023-03-05T04:57:18.234Z,100240.30
2023-03-05T04:59:46.522Z,100230.27
2023-03-05T05:02:15.242Z,100233.56
2023-03-05T05:04:46.338Z,100232.17
2023-03-05T05:07:17.897Z,100226.65
2023-03-05T05:09:46.526Z,100226.14
2023-03-05T05:12:15.039Z,100227.18
2023-03-05T05:14:44.264Z,100229.94
2023-03-05T05:17:14.182Z,100228.39
2023-03-05T05:19:42.802Z,100228.20
2023-03-05T05:22:11.189Z,100225.96
2023-03-05T05:24:39.279Z,100229.77
2023-03-05T05:27:08.404Z,100231.48
2023-03-05T05:29:38.952Z,100230.61
2023-03-05T05:32:07.699Z,100230.27
2023-03-05T05:34:36.099Z,100229.23
2023-03-05T05:37:04.588Z,100223.88
2023-03-05T05:39:32.916Z,100227.50
2023-03-05T05:42:01.192Z,100229.21
2023-03-05T05:44:29.586Z,100233.15
2023-03-05T05:46:57.850Z,100231.58
2023-03-05T05:49:26.480Z,100229.33
2023-03-05T05:51:54.931Z,100234.70
2023-03-05T05:54:23.353Z,100237.98
2023-03-05T05:56:52.132Z,100238.66
2023-03-05T05:59:20.511Z,100229.64
2023-03-05T06:01:49.456Z,100229.97
2023-03-05T06:04:17.899Z,100229.98
2023-03-05T06:06:46.617Z,100225.48
2023-03-05T06:09:15.599Z,100231.71
2023-03-05T06:11:44.058Z,100229.31
2023-03-05T06:14:13.205Z,100227.73
2023-03-05T06:16:42.135Z,100230.81
2023-03-05T06:19:15.442Z,100227.52
2023-03-05T06:21:44.394Z,100227.33
2023-03-05T06:24:14.271Z,100224.37
2023-03-05T06:26:46.994Z,100221.42
2023-03-05T06:29:15.640Z,100219.48
2023-03-05T06:31:44.296Z,100217.35
2023-03-05T06:34:12.589Z,100220.98
2023-03-05T06:36:40.823Z,100220.09
2023-03-05T06:39:10.479Z,100224.56
2023-03-05T06:41:38.704Z,100220.92
2023-03-05T06:44:07.190Z,100225.62
2023-03-05T06:46:39.967Z,100227.35
2023-03-05T06:49:09.764Z,100224.75
2023-03-05T06:51:40.395Z,100229.06
2023-03-05T06:54:15.448Z,100227.65
2023-03-05T06:56:47.640Z,100231.13
2023-03-05T06:59:17.219Z,100228.03
2023-03-05T07:01:45.860Z,100227.50
2023-03-05T07:04:15.972Z,100225.98
2023-03-05T07:06:44.327Z,100227.36
2023-03-05T07:09:15.640Z,100222.83
2023-03-05T07:11:44.065Z,100222.71
2023-03-05T07:14:13.557Z,100220.05
2023-03-05T07:16:41.662Z,100217.91
2023-03-05T07:19:11.853Z,100218.25
2023-03-05T07:21:41.872Z,100215.85
2023-03-05T07:24:12.655Z,100216.31
2023-03-05T07:26:40.887Z,100216.44
2023-03-05T07:29:09.963Z,100218.95
2023-03-05T07:31:38.400Z,100216.77
2023-03-05T07:34:07.010Z,100213.11
2023-03-05T07:36:35.527Z,100215.20
2023-03-05T07:39:07.858Z,100214.00
2023-03-05T07:41:36.063Z,100209.06
2023-03-05T07:44:04.530Z,100204.49
2023-03-05T07:46:34.245Z,100207.84
2023-03-05T07:49:02.856Z,100199.95
2023-03-05T07:51:33.242Z,100201.60
2023-03-05T07:54:02.856Z,100203.23
2023-03-05T07:56:35.682Z,100203.73
2023-03-05T07:59:07.346Z,100201.02
2023-03-05T08:01:36.131Z,100199.05
2023-03-05T08:04:06.130Z,100200.08
2023-03-05T08:06:34.783Z,100201.05
2023-03-05T08:09:03.199Z,100200.98
2023-03-05T08:11:31.502Z,100201.63
2023-03-05T08:14:01.237Z,100202.35
2023-03-05T08:16:29.520Z,100195.62
2023-03-05T08:18:58.754Z,100195.70
2023-03-05T08:21:35.109Z,100194.09
2023-03-05T08:24:07.323Z,100194.68
2023-03-05T08:26:38.762Z,100191.86
2023-03-05T08:29:08.723Z,100190.06
2023-03-05T08:31:39.223Z,100185.47
2023-03-05T08:34:07.915Z,100183.40
2023-03-05T08:36:36.005Z,100179.19
2023-03-05T08:39:07.087Z,100180.45
2023-03-05T08:41:36.303Z,100176.58
2023-03-05T08:44:05.244Z,100177.40
2023-03-05T08:46:33.924Z,100174.94
2023-03-05T08:49:02.909Z,100170.61
2023-03-05T08:51:32.347Z,100168.14
2023-03-05T08:54:02.474Z,100165.05
2023-03-05T08:56:31.691Z,100158.54
2023-03-05T08:59:00.545Z,100159.45
2023-03-05T09:01:30.846Z,100157.23
2023-03-05T09:04:00.537Z,100152.83
2023-03-05T09:06:28.755Z,100152.09
2023-03-05T09:09:00.830Z,100151.39
2023-03-05T09:11:36.367Z,100150.52
2023-03-05T09:14:06.437Z,100142.98
2023-03-05T09:16:36.999Z,100146.45
2023-03-05T09:19:05.524Z,100136.52
2023-03-05T09:21:34.282Z,100129.36
2023-03-05T09:24:03.491Z,100123.23
2023-03-05T09:26:32.172Z,100123.87
2023-03-05T09:29:00.430Z,100127.74
2023-03-05T09:31:29.207Z,100129.60
2023-03-05T09:33:57.628Z,100123.06
2023-03-05T09:36:31.605Z,100122.19
2023-03-05T09:39:00.379Z,100113.90
2023-03-05T09:41:54.874Z,100113.06
2023-03-05T09:44:24.030Z,100117.88
2023-03-05T09:46:56.063Z,100118.98
2023-03-05T09:49:34.468Z,100119.84
2023-03-05T09:52:14.241Z,100120.70
2023-03-05T09:54:44.909Z,100119.65
2023-03-05T09:57:19.583Z,100115.94
2023-03-05T09:59:50.975Z,100117.89
2023-03-05T10:02:26.250Z,100122.73
2023-03-05T10:05:01.071Z,100123.96
2023-03-05T10:07:34.622Z,100122.11
2023-03-05T10:10:27.716Z,100120.39
2023-03-05T10:13:13.978Z,100117.73
2023-03-05T10:15:52.435Z,100118.63
2023-03-05T10:18:49.310Z,100118.61
2023-03-05T10:21:47.453Z,100115.75
2023-03-05T10:24:26.115Z,100114.95
2023-03-05T10:27:14.398Z,100113.05
2023-03-05T10:29:52.298Z,100111.52
2023-03-05T10:32:58.728Z,100112.45
2023-03-05T10:35:45.838Z,100111.64
2023-03-05T10:38:53.753Z,100109.44
2023-03-05T10:41:53.552Z,100106.11
2023-03-05T10:44:35.367Z,100102.51
2023-03-05T10:47:13.180Z,100104.16
2023-03-05T10:49:53.324Z,100103.40
2023-03-05T10:52:37.889Z,100104.98
2023-03-05T10:55:26.952Z,100105.76
2023-03-05T10:57:56.330Z,100104.66
2023-03-05T11:00:28.537Z,100105.77
2023-03-05T11:03:08.486Z,100101.69
2023-03-05T11:06:04.864Z,100100.52
2023-03-05T11:08:36.299Z,100099.08
2023-03-05T11:11:10.393Z,100095.48
2023-03-05T11:13:58.809Z,100095.81
2023-03-05T11:16:30.250Z,100098.27
2023-03-05T11:19:17.972Z,100101.13
2023-03-05T11:22:05.121Z,100098.13
2023-03-05T11:24:34.170Z,100101.04
2023-03-05T11:27:38.212Z,100092.88
2023-03-05T11:30:26.429Z,100093.95
2023-03-05T11:33:10.549Z,100094.65
2023-03-05T11:35:42.354Z,100092.98
2023-03-05T11:38:26.948Z,100092.89
2023-03-05T11:40:58.965Z,100093.60
2023-03-05T11:43:27.455Z,100089.48
2023-03-05T11:46:05.971Z,100088.73
2023-03-05T11:48:39.185Z,100088.95
2023-03-05T11:51:25.869Z,100085.95
2023-03-05T11:54:12.368Z,100084.14
2023-03-05T11:56:44.063Z,100081.90
2023-03-05T11:59:19.263Z,100081.67
2023-03-05T12:01:54.298Z,100076.37
2023-03-05T12:04:22.894Z,100075.53
2023-03-05T12:07:04.688Z,100068.77
2023-03-05T12:09:49.664Z,100067.99
2023-03-05T12:12:36.384Z,100063.45
2023-03-05T12:15:26.273Z,100056.04
2023-03-05T12:18:14.862Z,100052.42
2023-03-05T12:21:21.004Z,100048.73
2023-03-05T12:24:06.513Z,100045.58
2023-03-05T12:26:53.283Z,100041.54
2023-03-05T12:29:31.525Z,100038.16
2023-03-05T12:32:02.361Z,100037.38
2023-03-05T12:34:43.081Z,100031.69
2023-03-05T12:37:13.983Z,100029.52
2023-03-05T12:39:49.812Z,100026.31
2023-03-05T12:42:30.269Z,100016.98
2023-03-05T12:45:14.803Z,100009.83
2023-03-05T12:48:12.967Z,99998.15
2023-03-05T12:50:43.557Z,99994.56
2023-03-05T12:53:15.604Z,99986.67
2023-03-05T12:55:45.901Z,99979.69
2023-03-05T12:58:32.516Z,99970.89
2023-03-05T13:01:20.246Z,99969.17
2023-03-05T13:04:21.799Z,99965.59
2023-03-05T13:07:04.786Z,99960.94
2023-03-05T13:09:36.754Z,99963.66
2023-03-05T13:12:13.512Z,99961.16
2023-03-05T13:15:03.802Z,99957.05
2023-03-05T13:17:44.712Z,99964.06
2023-03-05T13:20:30.738Z,99970.96
2023-03-05T13:23:22.888Z,99970.55
2023-03-05T13:26:19.027Z,99970.59
2023-03-05T13:29:14.112Z,99968.29
2023-03-05T13:31:52.136Z,99969.33
2023-03-05T13:34:46.706Z,99973.25
2023-03-05T13:37:22.160Z,99963.90
2023-03-05T13:39:52.889Z,99965.05
2023-03-05T13:42:28.849Z,99959.98
2023-03-05T13:44:59.561Z,99954.14
2023-03-05T13:47:30.859Z,99954.92
2023-03-05T13:50:06.322Z,99956.56
2023-03-05T13:52:38.073Z,99958.00
2023-03-05T13:55:15.699Z,99959.77
2023-03-05T13:57:45.296Z,99963.66
2023-03-05T14:00:31.664Z,99963.74
2023-03-05T14:03:25.255Z,99954.58
2023-03-05T14:05:54.571Z,99950.06
2023-03-05T14:08:27.365Z,99947.59
2023-03-05T14:10:57.785Z,99946.64
2023-03-05T14:13:30.004Z,99943.08
2023-03-05T14:16:25.924Z,99934.77
2023-03-05T14:18:59.503Z,99935.89
2023-03-05T14:21:46.504Z,99936.42
2023-03-05T14:24:22.912Z,99934.70
2023-03-05T14:26:54.402Z,99936.21
2023-03-05T14:29:25.430Z,99930.17
2023-03-05T14:31:59.237Z,99928.66
2023-03-05T14:34:42.462Z,99937.70
2023-03-05T14:37:24.847Z,99938.76
2023-03-05T14:40:13.639Z,99946.46
2023-03-05T14:42:56.215Z,99949.46
2023-03-05T14:45:32.016Z,99952.57
2023-03-05T14:48:03.112Z,99956.63
2023-03-05T14:50:44.211Z,99959.44
2023-03-05T14:53:18.429Z,99962.60
2023-03-05T14:55:50.613Z,99964.80
2023-03-05T14:58:22.352Z,99968.76
2023-03-05T15:00:51.424Z,99968.31
2023-03-05T15:03:21.362Z,99967.05
2023-03-05T15:05:52.812Z,99965.70
2023-03-05T15:08:29.571Z,99969.77
2023-03-05T15:11:00.066Z,99970.95
2023-03-05T15:13:28.605Z,99976.92
2023-03-05T15:15:57.620Z,99991.48
2023-03-05T15:18:26.089Z,99998.70
2023-03-05T15:20:59.186Z,100003.70
2023-03-05T15:23:30.147Z,100000.08
2023-03-05T15:25:58.619Z,100003.07
2023-03-05T15:28:27.303Z,99997.38
2023-03-05T15:30:58.225Z,100000.27
2023-03-05T15:33:32.153Z,99999.56
2023-03-05T15:36:05.942Z,99996.45
2023-03-05T15:38:43.494Z,99995.20
2023-03-05T15:41:17.334Z,99995.56
2023-03-05T15:43:50.563Z,99991.77
2023-03-05T15:46:23.379Z,99993.02
2023-03-05T15:48:55.038Z,99991.25
2023-03-05T15:51:27.338Z,99993.31
2023-03-05T15:54:01.715Z,99987.92
2023-03-05T15:56:34.310Z,99989.56
2023-03-05T15:59:06.282Z,99987.48
2023-03-05T16:01:39.444Z,99985.10
2023-03-05T16:04:14.073Z,99986.58
2023-03-05T16:06:48.638Z,99988.13
2023-03-05T16:09:21.509Z,99985.67
2023-03-05T16:11:54.266Z,99987.30
2023-03-05T16:14:32.700Z,99991.85
2023-03-05T16:17:05.449Z,99991.50
2023-03-05T16:19:39.559Z,99990.84
2023-03-05T16:22:08.137Z,99990.09
2023-03-05T16:24:37.778Z,99989.40
2023-03-05T16:27:06.585Z,99989.05
2023-03-05T16:29:34.791Z,99987.61
2023-03-05T16:32:04.798Z,99988.58
2023-03-05T16:34:34.940Z,99987.79
2023-03-05T16:37:07.131Z,99988.67
2023-03-05T16:39:35.667Z,99990.85
2023-03-05T16:42:05.274Z,99988.43
2023-03-05T16:44:33.984Z,99989.77
2023-03-05T16:47:03.115Z,99992.29
2023-03-05T16:49:31.654Z,99991.63
2023-03-05T16:52:06.204Z,99988.27
2023-03-05T16:54:45.762Z,99993.66
2023-03-05T16:57:15.537Z,99994.86
2023-03-05T16:59:45.911Z,99995.83
2023-03-05T17:02:15.526Z,99995.09
2023-03-05T17:04:45.205Z,99994.89
2023-03-05T17:07:14.154Z,99996.10
2023-03-05T17:09:44.836Z,99993.95
2023-03-05T17:12:13.252Z,99989.06
2023-03-05T17:14:46.585Z,99989.91
2023-03-05T17:17:17.855Z,99991.21
2023-03-05T17:19:46.147Z,99991.98
2023-03-05T17:22:16.328Z,99992.98
2023-03-05T17:24:48.391Z,99991.55
2023-03-05T17:27:19.153Z,99994.70
2023-03-05T17:29:47.623Z,99994.50
2023-03-05T17:32:16.362Z,99993.10
2023-03-05T17:34:45.005Z,99991.36
2023-03-05T17:37:14.792Z,99989.48
2023-03-05T17:39:43.204Z,99989.35
2023-03-05T17:42:11.738Z,99990.17
2023-03-05T17:44:40.117Z,99990.61
2023-03-05T17:47:09.255Z,99988.99
2023-03-05T17:49:37.950Z,99986.58
2023-03-05T17:52:06.543Z,99988.34
2023-03-05T17:54:34.846Z,99990.36
2023-03-05T17:57:04.226Z,99988.88
2023-03-05T17:59:33.864Z,99990.02
2023-03-05T18:02:02.817Z,99986.95
2023-03-05T18:04:31.174Z,99987.02
2023-03-05T18:06:59.868Z,99985.06
2023-03-05T18:09:27.978Z,99983.72
2023-03-05T18:11:56.579Z,99985.48
2023-03-05T18:14:25.336Z,99981.48
2023-03-05T18:16:55.356Z,99984.77
2023-03-05T18:19:25.684Z,99988.56
2023-03-05T18:21:54.485Z,99987.23
2023-03-05T18:24:22.841Z,99987.46
2023-03-05T18:26:51.481Z,99986.97
2023-03-05T18:29:21.052Z,99990.58
2023-03-05T18:31:50.254Z,99988.19
2023-03-05T18:34:19.519Z,99990.91
2023-03-05T18:36:48.466Z,99991.46
2023-03-05T18:39:18.962Z,99991.35
2023-03-05T18:41:50.435Z,99989.33
2023-03-05T18:44:20.685Z,99990.14
2023-03-05T18:46:49.564Z,99986.42
2023-03-05T18:49:17.905Z,99989.45
2023-03-05T18:51:47.430Z,99987.95
2023-03-05T18:54:21.190Z,99992.61
2023-03-05T18:56:49.760Z,99990.84
2023-03-05T18:59:18.393Z,99994.61
2023-03-05T19:01:47.275Z,99992.73
2023-03-05T19:04:15.643Z,99997.80
2023-03-05T19:06:44.343Z,99996.45
2023-03-05T19:09:42.496Z,99996.52
2023-03-05T19:12:11.496Z,99998.70
2023-03-05T19:14:40.115Z,99997.77
2023-03-05T19:17:08.876Z,99999.00
2023-03-05T19:19:37.397Z,99996.30
2023-03-05T19:22:05.923Z,99997.35
2023-03-05T19:24:38.765Z,100000.11
2023-03-05T19:27:11.788Z,100000.36
2023-03-05T19:29:43.918Z,99998.13
2023-03-05T19:32:17.986Z,99997.46
2023-03-05T19:34:46.709Z,99997.23
2023-03-05T19:37:15.662Z,99996.20
2023-03-05T19:39:44.103Z,99994.13
2023-03-05T19:42:14.098Z,99994.77
2023-03-05T19:44:42.792Z,99992.75
2023-03-05T19:47:14.724Z,99991.29
2023-03-05T19:49:43.924Z,99992.42
2023-03-05T19:52:14.265Z,99989.38
2023-03-05T19:54:42.739Z,99990.29
2023-03-05T19:57:12.311Z,99989.47
2023-03-05T19:59:40.699Z,99991.59
2023-03-05T20:02:12.083Z,99991.58
2023-03-05T20:04:41.779Z,99990.22
2023-03-05T20:07:12.276Z,99994.18
2023-03-05T20:09:43.144Z,99993.48
2023-03-05T20:12:11.993Z,99992.81
2023-03-05T20:14:40.262Z,99993.99
2023-03-05T20:17:08.513Z,99994.67
2023-03-05T20:19:37.019Z,99995.20
2023-03-05T20:22:06.292Z,99988.44
2023-03-05T20:24:35.745Z,99993.58
2023-03-05T20:27:04.571Z,99996.90
2023-03-05T20:29:32.881Z,99990.37
2023-03-05T20:32:03.303Z,99991.84
2023-03-05T20:34:32.461Z,99992.26
2023-03-05T20:37:05.186Z,99991.57
2023-03-05T20:39:33.592Z,99987.74
2023-03-05T20:42:03.360Z,99985.52
2023-03-05T20:44:32.034Z,99983.13
2023-03-05T20:47:23.019Z,99982.83
2023-03-05T20:49:57.868Z,99980.46
2023-03-05T20:52:26.373Z,99979.58
2023-03-05T20:54:54.832Z,99976.94
2023-03-05T20:57:24.158Z,99977.02
2023-03-05T20:59:56.969Z,99977.03
2023-03-05T21:02:27.706Z,99978.40
2023-03-05T21:04:57.684Z,99979.80
2023-03-05T21:07:32.437Z,99974.58
2023-03-05T21:10:08.294Z,99973.89
2023-03-05T21:12:39.154Z,99973.55
2023-03-05T21:15:09.497Z,99969.90
2023-03-05T21:17:38.658Z,99966.10
2023-03-05T21:20:09.892Z,99967.49
2023-03-05T21:22:38.060Z,99968.73
2023-03-05T21:25:27.839Z,99969.74
2023-03-05T21:27:56.253Z,99969.67
2023-03-05T21:30:31.595Z,99967.09
2023-03-05T21:33:01.375Z,99966.05
2023-03-05T21:35:32.750Z,99962.10
2023-03-05T21:38:02.437Z,99958.44
2023-03-05T21:40:31.926Z,99952.92
2023-03-05T21:43:00.610Z,99951.91
2023-03-05T21:45:30.608Z,99955.03
2023-03-05T21:48:01.883Z,99955.94
2023-03-05T21:50:30.157Z,99954.11
2023-03-05T21:52:59.267Z,99954.14
2023-03-05T21:55:33.542Z,99954.83
2023-03-05T21:58:03.275Z,99953.29
2023-03-05T22:00:31.785Z,99950.56
2023-03-05T22:03:00.636Z,99948.52
2023-03-05T22:05:29.052Z,99947.85
2023-03-05T22:07:58.046Z,99949.77
2023-03-05T22:10:26.410Z,99943.38
2023-03-05T22:13:12.510Z,99945.45
2023-03-05T22:15:52.296Z,99944.64
2023-03-05T22:18:23.728Z,99943.61
2023-03-05T22:20:53.109Z,99944.83
2023-03-05T22:23:24.566Z,99944.85
2023-03-05T22:25:58.102Z,99945.38
2023-03-05T22:28:30.278Z,99943.32
2023-03-05T22:30:58.907Z,99938.50
2023-03-05T22:33:27.889Z,99936.61
2023-03-05T22:35:56.672Z,99934.02
2023-03-05T22:38:25.633Z,99931.98
2023-03-05T22:40:53.990Z,99929.74
2023-03-05T22:43:22.502Z,99929.23
2023-03-05T22:45:53.798Z,99927.52
2023-03-05T22:48:22.201Z,99926.31
2023-03-05T22:50:56.323Z,99933.39
2023-03-05T22:53:24.828Z,99930.45
2023-03-05T22:55:53.127Z,99929.61
2023-03-05T22:58:21.243Z,99932.36
2023-03-05T23:00:49.824Z,99933.73
2023-03-05T23:03:18.614Z,99930.79
2023-03-05T23:05:46.768Z,99925.45
2023-03-05T23:08:15.267Z,99927.33
2023-03-05T23:10:43.820Z,99924.59
2023-03-05T23:13:12.393Z,99920.45
2023-03-05T23:15:40.583Z,99921.48
2023-03-05T23:18:09.480Z,99920.28
2023-03-05T23:20:38.013Z,99921.45
2023-03-05T23:23:07.241Z,99921.98
2023-03-05T23:25:36.996Z,99925.09
2023-03-05T23:28:05.932Z,99923.02
2023-03-05T23:30:39.298Z,99921.81
2023-03-05T23:33:19.962Z,99918.90
2023-03-05T23:35:57.608Z,99917.53
2023-03-05T23:38:29.076Z,99916.67
2023-03-05T23:41:01.504Z,99914.78
2023-03-05T23:43:30.676Z,99910.98
2023-03-05T23:46:00.632Z,99907.55
2023-03-05T23:48:30.848Z,99915.48
2023-03-05T23:50:59.545Z,99916.66
2023-03-05T23:53:31.384Z,99914.77
2023-03-05T23:55:59.706Z,99914.27
2023-03-05T23:58:28.398Z,99920.13
